sensor_id;sensor_type;location;lat;lon;timestamp;P1;durP1;ratioP1;P2;durP2;ratioP2
81656;SDS011;71067;51.482;-0.580;2023-09-07T00:02:19;30.40;;;24.45;;
81656;SDS011;71067;51.482;-0.580;2023-09-07T00:04:45;30.35;;;25.27;;
81656;SDS011;71067;51.482;-0.580;2023-09-07T00:07:10;41.97;;;31.33;;
81656;SDS011;71067;51.482;-0.580;2023-09-07T00:09:35;36.60;;;29.80;;
81656;SDS011;71067;51.482;-0.580;2023-09-07T00:12:00;37.80;;;31.00;;
81656;SDS011;71067;51.482;-0.580;2023-09-07T00:14:26;36.70;;;27.88;;
81656;SDS011;71067;51.482;-0.580;2023-09-07T00:16:51;39.53;;;29.02;;
81656;SDS011;71067;51.482;-0.580;2023-09-07T00:19:16;34.30;;;28.83;;
81656;SDS011;71067;51.482;-0.580;2023-09-07T00:21:42;39.15;;;30.67;;
81656;SDS011;71067;51.482;-0.580;2023-09-07T00:24:07;38.07;;;29.13;;
81656;SDS011;71067;51.482;-0.580;2023-09-07T00:26:33;34.67;;;29.67;;
81656;SDS011;71067;51.482;-0.580;2023-09-07T00:28:58;38.45;;;30.38;;
81656;SDS011;71067;51.482;-0.580;2023-09-07T00:31:24;42.05;;;32.63;;
81656;SDS011;71067;51.482;-0.580;2023-09-07T00:33:49;37.28;;;30.48;;
81656;SDS011;71067;51.482;-0.580;2023-09-07T00:36:14;35.93;;;30.20;;
81656;SDS011;71067;51.482;-0.580;2023-09-07T00:38:40;38.33;;;31.90;;
81656;SDS011;71067;51.482;-0.580;2023-09-07T00:41:06;38.38;;;29.60;;
81656;SDS011;71067;51.482;-0.580;2023-09-07T00:43:31;40.72;;;30.95;;
81656;SDS011;71067;51.482;-0.580;2023-09-07T00:45:57;38.77;;;29.70;;
81656;SDS011;71067;51.482;-0.580;2023-09-07T00:48:22;31.38;;;26.35;;
81656;SDS011;71067;51.482;-0.580;2023-09-07T00:50:48;31.13;;;25.52;;
81656;SDS011;71067;51.482;-0.580;2023-09-07T00:53:13;33.05;;;28.95;;
81656;SDS011;71067;51.482;-0.580;2023-09-07T00:55:39;33.33;;;25.52;;
81656;SDS011;71067;51.482;-0.580;2023-09-07T00:58:05;29.67;;;23.58;;
81656;SDS011;71067;51.482;-0.580;2023-09-07T01:00:30;29.73;;;24.55;;
81656;SDS011;71067;51.482;-0.580;2023-09-07T01:02:56;29.52;;;24.52;;
81656;SDS011;71067;51.482;-0.580;2023-09-07T01:05:23;28.25;;;23.25;;
81656;SDS011;71067;51.482;-0.580;2023-09-07T01:07:57;27.65;;;21.23;;
81656;SDS011;71067;51.482;-0.580;2023-09-07T01:10:28;26.35;;;21.67;;
81656;SDS011;71067;51.482;-0.580;2023-09-07T01:12:54;23.98;;;18.20;;
81656;SDS011;71067;51.482;-0.580;2023-09-07T01:15:19;23.17;;;20.00;;
81656;SDS011;71067;51.482;-0.580;2023-09-07T01:17:44;28.10;;;20.77;;
81656;SDS011;71067;51.482;-0.580;2023-09-07T01:20:10;30.25;;;22.58;;
81656;SDS011;71067;51.482;-0.580;2023-09-07T01:22:38;25.10;;;21.50;;
81656;SDS011;71067;51.482;-0.580;2023-09-07T01:25:04;27.45;;;22.05;;
81656;SDS011;71067;51.482;-0.580;2023-09-07T01:27:32;25.30;;;21.45;;
81656;SDS011;71067;51.482;-0.580;2023-09-07T01:29:58;27.48;;;23.55;;
81656;SDS011;71067;51.482;-0.580;2023-09-07T01:32:24;26.90;;;22.90;;
81656;SDS011;71067;51.482;-0.580;2023-09-07T01:34:50;30.17;;;23.35;;
81656;SDS011;71067;51.482;-0.580;2023-09-07T01:37:19;27.35;;;23.77;;
81656;SDS011;71067;51.482;-0.580;2023-09-07T01:39:45;28.08;;;23.40;;
81656;SDS011;71067;51.482;-0.580;2023-09-07T01:42:10;25.33;;;22.17;;
81656;SDS011;71067;51.482;-0.580;2023-09-07T01:44:35;28.08;;;24.38;;
81656;SDS011;71067;51.482;-0.580;2023-09-07T01:47:01;29.83;;;25.38;;
81656;SDS011;71067;51.482;-0.580;2023-09-07T01:49:26;33.00;;;27.00;;
81656;SDS011;71067;51.482;-0.580;2023-09-07T01:51:51;34.20;;;25.90;;
81656;SDS011;71067;51.482;-0.580;2023-09-07T01:54:20;35.33;;;27.02;;
81656;SDS011;71067;51.482;-0.580;2023-09-07T01:56:46;34.55;;;27.63;;
81656;SDS011;71067;51.482;-0.580;2023-09-07T01:59:11;34.33;;;28.40;;
81656;SDS011;71067;51.482;-0.580;2023-09-07T02:01:37;35.50;;;28.70;;
81656;SDS011;71067;51.482;-0.580;2023-09-07T02:04:03;38.20;;;28.98;;
81656;SDS011;71067;51.482;-0.580;2023-09-07T02:06:29;34.53;;;29.48;;
81656;SDS011;71067;51.482;-0.580;2023-09-07T02:08:54;36.38;;;28.42;;
81656;SDS011;71067;51.482;-0.580;2023-09-07T02:11:20;33.53;;;25.90;;
81656;SDS011;71067;51.482;-0.580;2023-09-07T02:13:46;36.08;;;27.77;;
81656;SDS011;71067;51.482;-0.580;2023-09-07T02:16:12;36.15;;;28.38;;
81656;SDS011;71067;51.482;-0.580;2023-09-07T02:18:37;36.63;;;30.35;;
81656;SDS011;71067;51.482;-0.580;2023-09-07T02:21:08;41.50;;;31.70;;
81656;SDS011;71067;51.482;-0.580;2023-09-07T02:23:33;35.22;;;28.88;;
81656;SDS011;71067;51.482;-0.580;2023-09-07T02:25:59;36.88;;;30.15;;
81656;SDS011;71067;51.482;-0.580;2023-09-07T02:28:24;36.38;;;29.45;;
81656;SDS011;71067;51.482;-0.580;2023-09-07T02:30:50;36.35;;;30.67;;
81656;SDS011;71067;51.482;-0.580;2023-09-07T02:33:16;40.47;;;31.95;;
81656;SDS011;71067;51.482;-0.580;2023-09-07T02:35:42;39.28;;;31.38;;
81656;SDS011;71067;51.482;-0.580;2023-09-07T02:38:07;43.53;;;32.40;;
81656;SDS011;71067;51.482;-0.580;2023-09-07T02:40:32;37.37;;;29.70;;
81656;SDS011;71067;51.482;-0.580;2023-09-07T02:42:58;35.63;;;29.30;;
81656;SDS011;71067;51.482;-0.580;2023-09-07T02:45:23;36.80;;;29.43;;
81656;SDS011;71067;51.482;-0.580;2023-09-07T02:47:48;38.23;;;31.10;;
81656;SDS011;71067;51.482;-0.580;2023-09-07T02:50:15;33.50;;;28.85;;
81656;SDS011;71067;51.482;-0.580;2023-09-07T02:52:42;33.25;;;28.35;;
81656;SDS011;71067;51.482;-0.580;2023-09-07T02:55:08;38.60;;;29.35;;
81656;SDS011;71067;51.482;-0.580;2023-09-07T02:57:34;34.27;;;29.00;;
81656;SDS011;71067;51.482;-0.580;2023-09-07T03:00:00;36.72;;;30.25;;
81656;SDS011;71067;51.482;-0.580;2023-09-07T03:02:25;39.83;;;29.87;;
81656;SDS011;71067;51.482;-0.580;2023-09-07T03:04:54;37.95;;;30.42;;
81656;SDS011;71067;51.482;-0.580;2023-09-07T03:07:20;38.88;;;30.42;;
81656;SDS011;71067;51.482;-0.580;2023-09-07T03:09:45;38.28;;;30.70;;
81656;SDS011;71067;51.482;-0.580;2023-09-07T03:12:11;35.03;;;29.70;;
81656;SDS011;71067;51.482;-0.580;2023-09-07T03:14:36;34.83;;;29.45;;
81656;SDS011;71067;51.482;-0.580;2023-09-07T03:17:01;38.00;;;30.40;;
81656;SDS011;71067;51.482;-0.580;2023-09-07T03:19:28;35.42;;;27.50;;
81656;SDS011;71067;51.482;-0.580;2023-09-07T03:21:53;36.97;;;29.95;;
81656;SDS011;71067;51.482;-0.580;2023-09-07T03:24:19;41.15;;;31.00;;
81656;SDS011;71067;51.482;-0.580;2023-09-07T03:26:45;37.90;;;29.92;;
81656;SDS011;71067;51.482;-0.580;2023-09-07T03:29:11;36.28;;;29.55;;
81656;SDS011;71067;51.482;-0.580;2023-09-07T03:31:36;38.90;;;30.13;;
81656;SDS011;71067;51.482;-0.580;2023-09-07T03:34:02;37.67;;;30.60;;
81656;SDS011;71067;51.482;-0.580;2023-09-07T03:36:27;35.60;;;27.48;;
81656;SDS011;71067;51.482;-0.580;2023-09-07T03:38:52;35.67;;;28.97;;
81656;SDS011;71067;51.482;-0.580;2023-09-07T03:41:18;35.65;;;28.45;;
81656;SDS011;71067;51.482;-0.580;2023-09-07T03:43:43;37.70;;;28.23;;
81656;SDS011;71067;51.482;-0.580;2023-09-07T03:46:09;34.72;;;27.42;;
81656;SDS011;71067;51.482;-0.580;2023-09-07T03:48:36;32.35;;;27.08;;
81656;SDS011;71067;51.482;-0.580;2023-09-07T03:51:04;36.30;;;27.95;;
81656;SDS011;71067;51.482;-0.580;2023-09-07T03:53:31;35.75;;;27.67;;
81656;SDS011;71067;51.482;-0.580;2023-09-07T03:55:56;35.08;;;29.65;;
81656;SDS011;71067;51.482;-0.580;2023-09-07T03:58:21;38.70;;;31.42;;
81656;SDS011;71067;51.482;-0.580;2023-09-07T04:00:46;39.43;;;31.17;;
81656;SDS011;71067;51.482;-0.580;2023-09-07T04:03:12;39.20;;;31.67;;
81656;SDS011;71067;51.482;-0.580;2023-09-07T04:05:38;42.28;;;31.65;;
81656;SDS011;71067;51.482;-0.580;2023-09-07T04:08:06;39.78;;;31.98;;
81656;SDS011;71067;51.482;-0.580;2023-09-07T04:10:32;38.65;;;30.08;;
81656;SDS011;71067;51.482;-0.580;2023-09-07T04:12:57;37.63;;;29.77;;
81656;SDS011;71067;51.482;-0.580;2023-09-07T04:15:23;37.80;;;31.48;;
81656;SDS011;71067;51.482;-0.580;2023-09-07T04:17:50;38.78;;;31.25;;
81656;SDS011;71067;51.482;-0.580;2023-09-07T04:20:16;41.83;;;33.55;;
81656;SDS011;71067;51.482;-0.580;2023-09-07T04:22:42;43.85;;;31.35;;
81656;SDS011;71067;51.482;-0.580;2023-09-07T04:25:07;41.08;;;33.05;;
81656;SDS011;71067;51.482;-0.580;2023-09-07T04:27:33;43.30;;;34.03;;
81656;SDS011;71067;51.482;-0.580;2023-09-07T04:29:58;40.80;;;33.47;;
81656;SDS011;71067;51.482;-0.580;2023-09-07T04:32:23;39.42;;;31.80;;
81656;SDS011;71067;51.482;-0.580;2023-09-07T04:34:56;41.35;;;33.80;;
81656;SDS011;71067;51.482;-0.580;2023-09-07T04:37:24;40.70;;;32.58;;
81656;SDS011;71067;51.482;-0.580;2023-09-07T04:39:50;42.90;;;34.72;;
81656;SDS011;71067;51.482;-0.580;2023-09-07T04:42:20;44.85;;;35.63;;
81656;SDS011;71067;51.482;-0.580;2023-09-07T04:44:46;42.53;;;32.83;;
81656;SDS011;71067;51.482;-0.580;2023-09-07T04:47:12;39.38;;;32.85;;
81656;SDS011;71067;51.482;-0.580;2023-09-07T04:49:38;42.33;;;35.55;;
81656;SDS011;71067;51.482;-0.580;2023-09-07T04:52:03;44.03;;;35.27;;
81656;SDS011;71067;51.482;-0.580;2023-09-07T04:54:29;42.75;;;34.47;;
81656;SDS011;71067;51.482;-0.580;2023-09-07T04:56:54;44.57;;;36.17;;
81656;SDS011;71067;51.482;-0.580;2023-09-07T04:59:19;42.03;;;33.42;;
81656;SDS011;71067;51.482;-0.580;2023-09-07T05:01:45;42.97;;;34.45;;
81656;SDS011;71067;51.482;-0.580;2023-09-07T05:04:10;40.13;;;32.30;;
81656;SDS011;71067;51.482;-0.580;2023-09-07T05:06:36;42.55;;;34.65;;
81656;SDS011;71067;51.482;-0.580;2023-09-07T05:09:03;41.35;;;34.65;;
81656;SDS011;71067;51.482;-0.580;2023-09-07T05:11:29;42.38;;;34.42;;
81656;SDS011;71067;51.482;-0.580;2023-09-07T05:13:54;41.90;;;33.17;;
81656;SDS011;71067;51.482;-0.580;2023-09-07T05:16:19;39.80;;;32.90;;
81656;SDS011;71067;51.482;-0.580;2023-09-07T05:18:45;38.95;;;32.90;;
81656;SDS011;71067;51.482;-0.580;2023-09-07T05:21:11;42.92;;;33.58;;
81656;SDS011;71067;51.482;-0.580;2023-09-07T05:23:37;43.10;;;34.78;;
81656;SDS011;71067;51.482;-0.580;2023-09-07T05:26:02;40.75;;;34.65;;
81656;SDS011;71067;51.482;-0.580;2023-09-07T05:28:27;52.23;;;38.20;;
81656;SDS011;71067;51.482;-0.580;2023-09-07T05:30:53;47.53;;;38.43;;
81656;SDS011;71067;51.482;-0.580;2023-09-07T05:33:18;47.77;;;37.53;;
81656;SDS011;71067;51.482;-0.580;2023-09-07T05:35:44;42.08;;;34.38;;
81656;SDS011;71067;51.482;-0.580;2023-09-07T05:38:10;41.55;;;36.30;;
81656;SDS011;71067;51.482;-0.580;2023-09-07T05:40:37;45.13;;;35.45;;
81656;SDS011;71067;51.482;-0.580;2023-09-07T05:43:04;47.00;;;36.42;;
81656;SDS011;71067;51.482;-0.580;2023-09-07T05:45:30;46.83;;;36.17;;
81656;SDS011;71067;51.482;-0.580;2023-09-07T05:47:56;45.05;;;37.67;;
81656;SDS011;71067;51.482;-0.580;2023-09-07T05:50:22;46.60;;;37.92;;
81656;SDS011;71067;51.482;-0.580;2023-09-07T05:52:47;48.05;;;37.42;;
81656;SDS011;71067;51.482;-0.580;2023-09-07T05:55:12;47.80;;;37.05;;
81656;SDS011;71067;51.482;-0.580;2023-09-07T05:57:38;45.17;;;36.13;;
81656;SDS011;71067;51.482;-0.580;2023-09-07T06:00:03;52.60;;;41.42;;
81656;SDS011;71067;51.482;-0.580;2023-09-07T06:02:29;61.45;;;46.53;;
81656;SDS011;71067;51.482;-0.580;2023-09-07T06:04:55;49.90;;;40.90;;
81656;SDS011;71067;51.482;-0.580;2023-09-07T06:07:21;57.40;;;43.88;;
81656;SDS011;71067;51.482;-0.580;2023-09-07T06:09:46;54.72;;;44.33;;
81656;SDS011;71067;51.482;-0.580;2023-09-07T06:12:12;49.88;;;41.38;;
81656;SDS011;71067;51.482;-0.580;2023-09-07T06:14:38;54.78;;;43.65;;
81656;SDS011;71067;51.482;-0.580;2023-09-07T06:17:04;55.03;;;43.28;;
81656;SDS011;71067;51.482;-0.580;2023-09-07T06:19:29;53.00;;;40.80;;
81656;SDS011;71067;51.482;-0.580;2023-09-07T06:21:56;57.50;;;43.55;;
81656;SDS011;71067;51.482;-0.580;2023-09-07T06:24:22;58.22;;;45.20;;
81656;SDS011;71067;51.482;-0.580;2023-09-07T06:26:47;60.60;;;45.85;;
81656;SDS011;71067;51.482;-0.580;2023-09-07T06:29:13;55.47;;;44.22;;
81656;SDS011;71067;51.482;-0.580;2023-09-07T06:31:38;55.30;;;43.20;;
81656;SDS011;71067;51.482;-0.580;2023-09-07T06:34:04;57.25;;;44.72;;
81656;SDS011;71067;51.482;-0.580;2023-09-07T06:36:29;61.07;;;46.80;;
81656;SDS011;71067;51.482;-0.580;2023-09-07T06:38:55;51.63;;;40.83;;
81656;SDS011;71067;51.482;-0.580;2023-09-07T06:41:21;58.03;;;43.00;;
81656;SDS011;71067;51.482;-0.580;2023-09-07T06:43:46;55.00;;;40.97;;
81656;SDS011;71067;51.482;-0.580;2023-09-07T06:46:12;54.75;;;42.90;;
81656;SDS011;71067;51.482;-0.580;2023-09-07T06:48:37;54.90;;;43.97;;
81656;SDS011;71067;51.482;-0.580;2023-09-07T06:51:03;56.53;;;44.08;;
81656;SDS011;71067;51.482;-0.580;2023-09-07T06:53:29;58.78;;;45.22;;
81656;SDS011;71067;51.482;-0.580;2023-09-07T06:56:01;60.05;;;46.78;;
81656;SDS011;71067;51.482;-0.580;2023-09-07T06:58:28;58.83;;;43.55;;
81656;SDS011;71067;51.482;-0.580;2023-09-07T07:00:57;60.03;;;46.72;;
81656;SDS011;71067;51.482;-0.580;2023-09-07T07:03:27;56.70;;;44.45;;
81656;SDS011;71067;51.482;-0.580;2023-09-07T07:05:53;55.03;;;42.13;;
81656;SDS011;71067;51.482;-0.580;2023-09-07T07:08:19;63.28;;;47.75;;
81656;SDS011;71067;51.482;-0.580;2023-09-07T07:10:44;60.37;;;46.60;;
81656;SDS011;71067;51.482;-0.580;2023-09-07T07:13:10;59.97;;;47.65;;
81656;SDS011;71067;51.482;-0.580;2023-09-07T07:15:36;60.80;;;46.88;;
81656;SDS011;71067;51.482;-0.580;2023-09-07T07:18:01;61.05;;;45.97;;
81656;SDS011;71067;51.482;-0.580;2023-09-07T07:20:33;59.72;;;47.17;;
81656;SDS011;71067;51.482;-0.580;2023-09-07T07:22:58;64.10;;;48.70;;
81656;SDS011;71067;51.482;-0.580;2023-09-07T07:25:23;62.90;;;47.23;;
81656;SDS011;71067;51.482;-0.580;2023-09-07T07:27:49;62.78;;;46.72;;
81656;SDS011;71067;51.482;-0.580;2023-09-07T07:30:14;62.87;;;45.60;;
81656;SDS011;71067;51.482;-0.580;2023-09-07T07:32:39;60.92;;;47.63;;
81656;SDS011;71067;51.482;-0.580;2023-09-07T07:35:05;60.17;;;45.45;;
81656;SDS011;71067;51.482;-0.580;2023-09-07T07:37:31;59.75;;;44.63;;
81656;SDS011;71067;51.482;-0.580;2023-09-07T07:39:57;56.00;;;45.00;;
81656;SDS011;71067;51.482;-0.580;2023-09-07T07:42:22;52.95;;;42.45;;
81656;SDS011;71067;51.482;-0.580;2023-09-07T07:44:48;55.28;;;42.17;;
81656;SDS011;71067;51.482;-0.580;2023-09-07T07:47:13;54.05;;;42.47;;
81656;SDS011;71067;51.482;-0.580;2023-09-07T07:49:38;53.13;;;42.03;;
81656;SDS011;71067;51.482;-0.580;2023-09-07T07:52:04;55.05;;;42.30;;
81656;SDS011;71067;51.482;-0.580;2023-09-07T07:54:30;50.70;;;40.40;;
81656;SDS011;71067;51.482;-0.580;2023-09-07T07:56:55;51.88;;;39.20;;
81656;SDS011;71067;51.482;-0.580;2023-09-07T07:59:21;49.33;;;37.72;;
81656;SDS011;71067;51.482;-0.580;2023-09-07T08:01:46;48.80;;;39.07;;
81656;SDS011;71067;51.482;-0.580;2023-09-07T08:04:11;48.97;;;35.22;;
81656;SDS011;71067;51.482;-0.580;2023-09-07T08:06:37;48.78;;;38.75;;
81656;SDS011;71067;51.482;-0.580;2023-09-07T08:09:02;44.37;;;35.93;;
81656;SDS011;71067;51.482;-0.580;2023-09-07T08:11:28;46.35;;;33.08;;
81656;SDS011;71067;51.482;-0.580;2023-09-07T08:13:53;44.13;;;34.92;;
81656;SDS011;71067;51.482;-0.580;2023-09-07T08:16:18;45.80;;;35.08;;
81656;SDS011;71067;51.482;-0.580;2023-09-07T08:18:44;41.90;;;33.22;;
81656;SDS011;71067;51.482;-0.580;2023-09-07T08:21:10;40.70;;;32.97;;
81656;SDS011;71067;51.482;-0.580;2023-09-07T08:23:35;37.50;;;28.90;;
81656;SDS011;71067;51.482;-0.580;2023-09-07T08:26:01;39.03;;;30.63;;
81656;SDS011;71067;51.482;-0.580;2023-09-07T08:28:27;38.53;;;29.98;;
81656;SDS011;71067;51.482;-0.580;2023-09-07T08:30:54;38.95;;;28.90;;
81656;SDS011;71067;51.482;-0.580;2023-09-07T08:33:22;36.15;;;28.80;;
81656;SDS011;71067;51.482;-0.580;2023-09-07T08:35:51;36.63;;;28.70;;
81656;SDS011;71067;51.482;-0.580;2023-09-07T08:38:18;34.17;;;28.30;;
81656;SDS011;71067;51.482;-0.580;2023-09-07T08:40:47;36.05;;;29.55;;
81656;SDS011;71067;51.482;-0.580;2023-09-07T08:43:13;28.63;;;24.75;;
81656;SDS011;71067;51.482;-0.580;2023-09-07T08:45:41;32.70;;;27.10;;
81656;SDS011;71067;51.482;-0.580;2023-09-07T08:48:12;34.30;;;24.80;;
81656;SDS011;71067;51.482;-0.580;2023-09-07T08:50:40;28.85;;;24.67;;
81656;SDS011;71067;51.482;-0.580;2023-09-07T08:53:07;31.42;;;25.85;;
81656;SDS011;71067;51.482;-0.580;2023-09-07T08:55:33;29.10;;;23.45;;
81656;SDS011;71067;51.482;-0.580;2023-09-07T08:57:59;28.65;;;22.33;;
81656;SDS011;71067;51.482;-0.580;2023-09-07T09:00:24;28.35;;;22.70;;
81656;SDS011;71067;51.482;-0.580;2023-09-07T09:02:50;28.67;;;23.65;;
81656;SDS011;71067;51.482;-0.580;2023-09-07T09:05:19;25.00;;;19.73;;
81656;SDS011;71067;51.482;-0.580;2023-09-07T09:07:44;28.20;;;23.67;;
81656;SDS011;71067;51.482;-0.580;2023-09-07T09:10:10;24.98;;;19.63;;
81656;SDS011;71067;51.482;-0.580;2023-09-07T09:12:35;23.83;;;20.52;;
81656;SDS011;71067;51.482;-0.580;2023-09-07T09:15:01;23.20;;;19.48;;
81656;SDS011;71067;51.482;-0.580;2023-09-07T09:17:28;24.13;;;20.05;;
81656;SDS011;71067;51.482;-0.580;2023-09-07T09:19:54;21.85;;;17.30;;
81656;SDS011;71067;51.482;-0.580;2023-09-07T09:22:19;23.88;;;20.08;;
81656;SDS011;71067;51.482;-0.580;2023-09-07T09:24:47;20.83;;;16.75;;
81656;SDS011;71067;51.482;-0.580;2023-09-07T09:27:13;23.33;;;20.23;;
81656;SDS011;71067;51.482;-0.580;2023-09-07T09:29:38;19.65;;;17.50;;
81656;SDS011;71067;51.482;-0.580;2023-09-07T09:32:04;22.08;;;18.00;;
81656;SDS011;71067;51.482;-0.580;2023-09-07T09:34:34;21.90;;;18.20;;
81656;SDS011;71067;51.482;-0.580;2023-09-07T09:37:01;23.13;;;19.13;;
81656;SDS011;71067;51.482;-0.580;2023-09-07T09:39:28;23.52;;;16.60;;
81656;SDS011;71067;51.482;-0.580;2023-09-07T09:41:54;23.25;;;17.13;;
81656;SDS011;71067;51.482;-0.580;2023-09-07T09:44:20;20.42;;;16.27;;
81656;SDS011;71067;51.482;-0.580;2023-09-07T09:46:50;19.02;;;16.17;;
81656;SDS011;71067;51.482;-0.580;2023-09-07T09:49:17;18.38;;;16.15;;
81656;SDS011;71067;51.482;-0.580;2023-09-07T09:51:43;21.92;;;16.90;;
81656;SDS011;71067;51.482;-0.580;2023-09-07T09:54:10;17.80;;;14.23;;
81656;SDS011;71067;51.482;-0.580;2023-09-07T09:56:37;18.77;;;15.32;;
81656;SDS011;71067;51.482;-0.580;2023-09-07T09:59:02;18.23;;;15.13;;
81656;SDS011;71067;51.482;-0.580;2023-09-07T10:01:29;17.27;;;13.98;;
81656;SDS011;71067;51.482;-0.580;2023-09-07T10:03:54;16.25;;;14.02;;
81656;SDS011;71067;51.482;-0.580;2023-09-07T10:06:25;18.77;;;13.40;;
81656;SDS011;71067;51.482;-0.580;2023-09-07T10:11:33;18.75;;;13.05;;
81656;SDS011;71067;51.482;-0.580;2023-09-07T10:14:00;16.63;;;11.57;;
81656;SDS011;71067;51.482;-0.580;2023-09-07T10:16:42;15.00;;;11.65;;
81656;SDS011;71067;51.482;-0.580;2023-09-07T10:19:18;13.63;;;11.50;;
81656;SDS011;71067;51.482;-0.580;2023-09-07T10:21:48;16.58;;;12.40;;
81656;SDS011;71067;51.482;-0.580;2023-09-07T10:24:31;14.35;;;11.07;;
81656;SDS011;71067;51.482;-0.580;2023-09-07T10:27:08;18.13;;;14.02;;
81656;SDS011;71067;51.482;-0.580;2023-09-07T10:29:46;13.52;;;11.45;;
81656;SDS011;71067;51.482;-0.580;2023-09-07T10:32:15;18.15;;;11.63;;
81656;SDS011;71067;51.482;-0.580;2023-09-07T10:34:41;14.55;;;11.75;;
81656;SDS011;71067;51.482;-0.580;2023-09-07T10:37:14;14.68;;;10.60;;
81656;SDS011;71067;51.482;-0.580;2023-09-07T10:39:40;17.42;;;10.27;;
81656;SDS011;71067;51.482;-0.580;2023-09-07T10:42:19;13.25;;;10.57;;
81656;SDS011;71067;51.482;-0.580;2023-09-07T10:44:49;12.25;;;8.70;;
81656;SDS011;71067;51.482;-0.580;2023-09-07T10:47:14;13.30;;;9.20;;
81656;SDS011;71067;51.482;-0.580;2023-09-07T10:49:40;11.80;;;7.50;;
81656;SDS011;71067;51.482;-0.580;2023-09-07T10:52:05;10.60;;;7.47;;
81656;SDS011;71067;51.482;-0.580;2023-09-07T10:54:30;13.98;;;8.35;;
81656;SDS011;71067;51.482;-0.580;2023-09-07T10:56:56;10.10;;;7.00;;
81656;SDS011;71067;51.482;-0.580;2023-09-07T10:59:23;13.68;;;9.68;;
81656;SDS011;71067;51.482;-0.580;2023-09-07T11:01:52;16.02;;;9.70;;
81656;SDS011;71067;51.482;-0.580;2023-09-07T11:04:18;12.98;;;9.30;;
81656;SDS011;71067;51.482;-0.580;2023-09-07T11:06:45;12.52;;;9.52;;
81656;SDS011;71067;51.482;-0.580;2023-09-07T11:09:10;11.75;;;9.02;;
81656;SDS011;71067;51.482;-0.580;2023-09-07T11:11:36;12.23;;;10.13;;
81656;SDS011;71067;51.482;-0.580;2023-09-07T11:14:02;10.82;;;8.48;;
81656;SDS011;71067;51.482;-0.580;2023-09-07T11:16:29;13.05;;;10.55;;
81656;SDS011;71067;51.482;-0.580;2023-09-07T11:18:55;16.42;;;13.60;;
81656;SDS011;71067;51.482;-0.580;2023-09-07T11:21:20;15.70;;;11.27;;
81656;SDS011;71067;51.482;-0.580;2023-09-07T11:23:47;15.45;;;11.88;;
81656;SDS011;71067;51.482;-0.580;2023-09-07T11:26:14;14.95;;;10.65;;
81656;SDS011;71067;51.482;-0.580;2023-09-07T11:28:42;14.18;;;9.50;;
81656;SDS011;71067;51.482;-0.580;2023-09-07T11:31:09;10.98;;;7.20;;
81656;SDS011;71067;51.482;-0.580;2023-09-07T11:33:35;9.15;;;6.45;;
81656;SDS011;71067;51.482;-0.580;2023-09-07T11:36:00;7.50;;;5.75;;
81656;SDS011;71067;51.482;-0.580;2023-09-07T11:38:28;13.65;;;7.50;;
81656;SDS011;71067;51.482;-0.580;2023-09-07T11:40:59;8.80;;;7.88;;
81656;SDS011;71067;51.482;-0.580;2023-09-07T11:43:24;11.60;;;8.27;;
81656;SDS011;71067;51.482;-0.580;2023-09-07T11:45:50;12.40;;;9.02;;
81656;SDS011;71067;51.482;-0.580;2023-09-07T11:48:15;10.82;;;7.80;;
81656;SDS011;71067;51.482;-0.580;2023-09-07T11:50:40;10.65;;;8.70;;
81656;SDS011;71067;51.482;-0.580;2023-09-07T11:53:06;14.88;;;10.00;;
81656;SDS011;71067;51.482;-0.580;2023-09-07T11:55:35;9.82;;;7.20;;
81656;SDS011;71067;51.482;-0.580;2023-09-07T11:58:01;14.65;;;10.13;;
81656;SDS011;71067;51.482;-0.580;2023-09-07T12:00:27;11.35;;;7.88;;
81656;SDS011;71067;51.482;-0.580;2023-09-07T12:02:53;9.57;;;7.47;;
81656;SDS011;71067;51.482;-0.580;2023-09-07T12:05:18;8.87;;;6.90;;
81656;SDS011;71067;51.482;-0.580;2023-09-07T12:07:44;10.18;;;7.93;;
81656;SDS011;71067;51.482;-0.580;2023-09-07T12:10:10;8.75;;;7.40;;
81656;SDS011;71067;51.482;-0.580;2023-09-07T12:12:36;9.50;;;6.82;;
81656;SDS011;71067;51.482;-0.580;2023-09-07T12:15:02;10.18;;;7.45;;
81656;SDS011;71067;51.482;-0.580;2023-09-07T12:17:29;9.02;;;7.78;;
81656;SDS011;71067;51.482;-0.580;2023-09-07T12:19:54;10.63;;;6.57;;
81656;SDS011;71067;51.482;-0.580;2023-09-07T12:22:20;11.50;;;7.00;;
81656;SDS011;71067;51.482;-0.580;2023-09-07T12:24:45;12.15;;;8.52;;
81656;SDS011;71067;51.482;-0.580;2023-09-07T12:27:10;9.05;;;7.60;;
81656;SDS011;71067;51.482;-0.580;2023-09-07T12:29:36;10.95;;;7.15;;
81656;SDS011;71067;51.482;-0.580;2023-09-07T12:32:01;11.50;;;7.00;;
81656;SDS011;71067;51.482;-0.580;2023-09-07T12:34:27;10.50;;;8.05;;
81656;SDS011;71067;51.482;-0.580;2023-09-07T12:36:52;8.10;;;6.77;;
81656;SDS011;71067;51.482;-0.580;2023-09-07T12:39:17;7.95;;;5.93;;
81656;SDS011;71067;51.482;-0.580;2023-09-07T12:41:43;8.30;;;6.30;;
81656;SDS011;71067;51.482;-0.580;2023-09-07T12:44:08;9.07;;;7.90;;
81656;SDS011;71067;51.482;-0.580;2023-09-07T12:46:33;12.40;;;8.32;;
81656;SDS011;71067;51.482;-0.580;2023-09-07T12:49:00;10.15;;;7.82;;
81656;SDS011;71067;51.482;-0.580;2023-09-07T12:51:25;11.75;;;8.52;;
81656;SDS011;71067;51.482;-0.580;2023-09-07T12:53:50;7.97;;;6.73;;
81656;SDS011;71067;51.482;-0.580;2023-09-07T12:56:16;8.40;;;6.30;;
81656;SDS011;71067;51.482;-0.580;2023-09-07T12:58:43;9.35;;;6.28;;
81656;SDS011;71067;51.482;-0.580;2023-09-07T13:01:08;9.75;;;6.45;;
81656;SDS011;71067;51.482;-0.580;2023-09-07T13:03:35;7.72;;;6.47;;
81656;SDS011;71067;51.482;-0.580;2023-09-07T13:06:02;10.75;;;6.05;;
81656;SDS011;71067;51.482;-0.580;2023-09-07T13:08:28;8.40;;;6.57;;
81656;SDS011;71067;51.482;-0.580;2023-09-07T13:10:54;6.78;;;5.90;;
81656;SDS011;71067;51.482;-0.580;2023-09-07T13:13:20;7.10;;;5.43;;
81656;SDS011;71067;51.482;-0.580;2023-09-07T13:15:47;8.32;;;5.90;;
81656;SDS011;71067;51.482;-0.580;2023-09-07T13:18:12;8.85;;;6.50;;
81656;SDS011;71067;51.482;-0.580;2023-09-07T13:20:37;8.23;;;6.00;;
81656;SDS011;71067;51.482;-0.580;2023-09-07T13:23:03;6.23;;;5.60;;
81656;SDS011;71067;51.482;-0.580;2023-09-07T13:25:28;7.28;;;6.50;;
81656;SDS011;71067;51.482;-0.580;2023-09-07T13:27:53;8.30;;;6.63;;
81656;SDS011;71067;51.482;-0.580;2023-09-07T13:30:19;7.93;;;6.23;;
81656;SDS011;71067;51.482;-0.580;2023-09-07T13:32:44;9.05;;;6.13;;
81656;SDS011;71067;51.482;-0.580;2023-09-07T13:35:11;6.78;;;6.07;;
81656;SDS011;71067;51.482;-0.580;2023-09-07T13:37:37;8.63;;;6.05;;
81656;SDS011;71067;51.482;-0.580;2023-09-07T13:40:02;7.70;;;6.20;;
81656;SDS011;71067;51.482;-0.580;2023-09-07T13:42:28;6.75;;;6.00;;
81656;SDS011;71067;51.482;-0.580;2023-09-07T13:44:54;7.10;;;6.05;;
81656;SDS011;71067;51.482;-0.580;2023-09-07T13:47:21;8.45;;;6.00;;
81656;SDS011;71067;51.482;-0.580;2023-09-07T13:49:46;9.57;;;6.80;;
81656;SDS011;71067;51.482;-0.580;2023-09-07T13:52:11;6.68;;;5.72;;
81656;SDS011;71067;51.482;-0.580;2023-09-07T13:54:38;7.10;;;6.40;;
81656;SDS011;71067;51.482;-0.580;2023-09-07T13:57:04;9.98;;;6.05;;
81656;SDS011;71067;51.482;-0.580;2023-09-07T13:59:29;6.72;;;6.00;;
81656;SDS011;71067;51.482;-0.580;2023-09-07T14:01:57;8.50;;;5.70;;
81656;SDS011;71067;51.482;-0.580;2023-09-07T14:04:23;8.07;;;5.47;;
81656;SDS011;71067;51.482;-0.580;2023-09-07T14:06:48;8.43;;;6.10;;
81656;SDS011;71067;51.482;-0.580;2023-09-07T14:09:13;6.93;;;6.22;;
81656;SDS011;71067;51.482;-0.580;2023-09-07T14:11:39;7.28;;;6.20;;